EPWAEPZG

Guest
Details From EPWA - WARSZAWA Okecie
To EPZG - ZIELONA GORA BABIMOST
Flight Number -
Tags decoded
Created
Modified
Stats Distance 193 nm / 357 km
Max Altitude 0 ft / 0 m
Waypoints 5
Social Downloads 4
Likes 0
Share

Download

Looking for another format? Having issues loading an existing format? Contact us
Advertisement - Login to hide

Notes

Requested: EPWA LOLSI T174 INDIG L980 OBOLA EPZG Unmatched points: T174 L980

Route

EPWA LOLSI INDIG OBOLA EPZG

ID Type Via Altitude (ft/m) Position (lat/lon) Dist (leg/tot) Name
O EPWA APT - 0 / 0 52.16509 / 20.96692 - / 0 nm WARSZAWA Okecie
LOLSI FIX - 0 / 0 52.17747 / 19.87139 40 / 40 nm
INDIG FIX - 0 / 0 51.99667 / 18.00000 69 / 110 nm
OBOLA FIX - 0 / 0 52.19488 / 16.20203 67 / 177 nm
O EPZG APT - 0 / 0 52.13863 / 15.79840 15 / 192 nm ZIELONA GORA BABIMOST

Altitude Profile

Advertisement - Login to hide

Weather


0- 5 10 15 20 25 30 35+ Temperature / °C

Clouds and Precipitation
Forecast for 2021-03-22 12:00 UTC. Updated 2 months ago

Ground ~20,000 ft ~40,000 ft Winds

EPWA

Details ICAO EPWA (WAW)
Name Warsaw Frederic Chopin
Region Poland
Timezone Europe/Warsaw (UTC+2.0)
Stats Elevation 362 ft / 110 m (AMSL)
Location 52.165100° 20.967000°
Runways 2
Magnetic Variation 6.239° E

METAR

EPWA 131200Z 09008KT 010V180 CAVOK 20/05 Q1001 NOSIG

Decode

TAF

TAF EPWA 131130Z 1312/1412 10010KT 9999 SCT045 BECMG 1316/1319 VRB02KT TEMPO 1320/1412 4000 TSRA BKN014 BKN030CB BECMG 1410/1412 29010KT

Decode

Departure Runways

ID Width Length Bearing (true/mag) Surface Threshold Overrun Markings Lighting
11 164 ft / 50 m 9,166 ft / 2,794 m 114.57° / 108.33° ASPHALT 0 ft / 0 m 492 ft / 150 m PREC-APP CENTERLINE EDGE THRESHOLD ALSF-II TDZ REIL-OMNI
15 197 ft / 60 m 12,093 ft / 3,686 m 151.80° / 145.56° ASPHALT 0 ft / 0 m 144 ft / 44 m PREC-APP CENTERLINE EDGE THRESHOLD ALSF-I REIL-OMNI
29 164 ft / 50 m 9,166 ft / 2,794 m 294.60° / 288.36° ASPHALT 1,617 ft / 493 m 102 ft / 31 m PREC-APP CENTERLINE EDGE THRESHOLD ALSF-I REIL-OMNI
33 197 ft / 60 m 12,093 ft / 3,686 m 331.82° / 325.58° ASPHALT 2,159 ft / 658 m 148 ft / 45 m PREC-APP CENTERLINE EDGE THRESHOLD ALSF-II TDZ REIL-OMNI

EPZG

Details ICAO EPZG (IEG)
Name ZIELONA GORA BABIMOST
Region Poland
Timezone Europe/Warsaw (UTC+2.0)
Stats Elevation 193 ft / 59 m (AMSL)
Location 52.138600° 15.798400°
Runways 1
Magnetic Variation 4.874° E

METAR

EPZG 131200Z 27004KT 230V330 8000 BKN011 OVC021 15/12 Q1002

Decode

TAF

Not found

Destination Runways

ID Width Length Bearing (true/mag) Surface Threshold Overrun Markings Lighting
06 197 ft / 60 m 8,169 ft / 2,490 m 64.50° / 59.62° CONCRETE 0 ft / 0 m 0 ft / 0 m UK-APP EDGE THRESHOLD
24 197 ft / 60 m 8,169 ft / 2,490 m 244.52° / 239.65° CONCRETE 0 ft / 0 m 0 ft / 0 m UK-APP EDGE THRESHOLD

Popular Alternatives